createdAt,value
2017-05-29T00:01:37.593Z,22.50
2017-05-29T00:04:17.690Z,22.40
2017-05-29T00:09:46.586Z,22.30
2017-05-29T00:12:21.858Z,22.30
2017-05-29T00:14:53.925Z,22.20
2017-05-29T00:20:26.101Z,22.00
2017-05-29T00:23:00.659Z,22.00
2017-05-29T00:28:21.122Z,21.90
2017-05-29T00:31:08.337Z,21.80
2017-05-29T00:33:41.029Z,21.80
2017-05-29T00:36:12.454Z,21.70
2017-05-29T00:38:49.959Z,21.70
2017-05-29T00:41:18.457Z,21.60
2017-05-29T00:43:46.977Z,21.50
2017-05-29T00:46:15.352Z,21.50
2017-05-29T00:48:42.938Z,21.50
2017-05-29T00:51:11.353Z,21.30
2017-05-29T00:53:39.720Z,21.30
2017-05-29T00:56:08.113Z,21.20
2017-05-29T00:58:36.441Z,21.10
2017-05-29T01:01:04.854Z,21.10
2017-05-29T01:03:33.182Z,21.10
2017-05-29T01:06:01.568Z,21.00
2017-05-29T01:08:29.190Z,21.00
2017-05-29T01:10:57.553Z,20.90
2017-05-29T01:13:25.873Z,20.90
2017-05-29T01:15:54.270Z,20.80
2017-05-29T01:18:22.633Z,20.80
2017-05-29T01:20:50.997Z,20.80
2017-05-29T01:23:19.316Z,20.80
2017-05-29T01:25:47.713Z,20.70
2017-05-29T01:28:16.033Z,20.70
2017-05-29T01:30:44.388Z,20.70
2017-05-29T01:33:12.725Z,20.60
2017-05-29T01:35:41.077Z,20.60
2017-05-29T01:38:09.411Z,20.50
2017-05-29T01:40:36.981Z,20.50
2017-05-29T01:43:05.342Z,20.40
2017-05-29T01:45:33.742Z,20.40
2017-05-29T01:48:02.136Z,20.40
2017-05-29T01:50:30.496Z,20.40
2017-05-29T01:52:58.853Z,20.40
2017-05-29T01:55:27.448Z,20.40
2017-05-29T01:57:55.792Z,20.30
2017-05-29T02:00:24.141Z,20.30
2017-05-29T02:02:52.518Z,20.30
2017-05-29T02:05:20.872Z,20.20
2017-05-29T02:07:49.237Z,20.20
2017-05-29T02:10:17.563Z,20.20
2017-05-29T02:12:45.922Z,20.10
2017-05-29T02:15:14.267Z,20.10
2017-05-29T02:17:42.631Z,20.10
2017-05-29T02:20:10.981Z,20.00
2017-05-29T02:22:39.341Z,20.00
2017-05-29T02:25:07.687Z,20.00
2017-05-29T02:27:36.049Z,19.90
2017-05-29T02:30:03.604Z,19.90
2017-05-29T02:32:31.974Z,19.90
2017-05-29T02:35:00.313Z,19.80
2017-05-29T02:37:28.711Z,19.80
2017-05-29T02:39:57.072Z,19.80
2017-05-29T02:42:24.704Z,19.80
2017-05-29T02:44:53.011Z,19.80
2017-05-29T02:47:21.378Z,19.80
2017-05-29T02:49:49.708Z,19.80
2017-05-29T02:52:18.047Z,19.70
2017-05-29T02:54:46.465Z,19.70
2017-05-29T02:57:14.823Z,19.70
2017-05-29T02:59:43.164Z,19.60
2017-05-29T03:02:11.519Z,19.60
2017-05-29T03:04:39.836Z,19.60
2017-05-29T03:07:08.196Z,19.60
2017-05-29T03:09:36.529Z,19.50
2017-05-29T03:12:04.909Z,19.50
2017-05-29T03:14:33.781Z,19.50
2017-05-29T03:17:02.365Z,19.50
2017-05-29T03:19:30.703Z,19.40
2017-05-29T03:21:58.512Z,19.40
2017-05-29T03:24:26.842Z,19.40
2017-05-29T03:26:55.173Z,19.40
2017-05-29T03:29:22.821Z,19.30
2017-05-29T03:31:51.163Z,19.40
2017-05-29T03:34:18.753Z,19.30
2017-05-29T03:36:47.074Z,19.40
2017-05-29T03:39:15.447Z,19.40
2017-05-29T03:41:43.929Z,19.40
2017-05-29T03:44:11.616Z,19.30
2017-05-29T03:46:40.455Z,19.40
2017-05-29T03:49:08.901Z,19.40
2017-05-29T03:51:37.237Z,19.30
2017-05-29T03:54:04.840Z,19.30
2017-05-29T03:56:33.202Z,19.40
2017-05-29T03:59:04.695Z,19.40
2017-05-29T04:01:33.022Z,19.40
2017-05-29T04:04:00.627Z,19.40
2017-05-29T04:06:28.985Z,19.50
2017-05-29T04:08:57.347Z,19.50
2017-05-29T04:11:25.701Z,19.50
2017-05-29T04:13:54.103Z,19.60
2017-05-29T04:16:22.458Z,19.60
2017-05-29T04:18:50.817Z,19.70
2017-05-29T04:21:18.409Z,19.70
2017-05-29T04:23:46.766Z,19.80
2017-05-29T04:26:14.366Z,19.80
2017-05-29T04:28:41.990Z,19.80
2017-05-29T04:31:10.334Z,19.90
2017-05-29T04:33:38.710Z,20.00
2017-05-29T04:36:07.231Z,20.10
2017-05-29T04:38:35.606Z,20.20
2017-05-29T04:41:03.954Z,20.30
2017-05-29T04:43:31.627Z,20.30
2017-05-29T04:46:00.014Z,20.40
2017-05-29T04:48:28.454Z,20.50
2017-05-29T04:50:56.826Z,20.70
2017-05-29T04:53:25.160Z,20.70
2017-05-29T04:55:53.541Z,20.80
2017-05-29T04:58:21.944Z,20.90
2017-05-29T05:00:50.336Z,21.00
2017-05-29T05:03:18.669Z,21.10
2017-05-29T05:05:47.098Z,21.20
2017-05-29T05:08:15.434Z,21.30
2017-05-29T05:10:43.829Z,21.40
2017-05-29T05:13:11.429Z,21.40
2017-05-29T05:15:39.790Z,21.60
2017-05-29T05:18:07.375Z,21.60
2017-05-29T05:20:37.236Z,21.70
2017-05-29T05:23:05.584Z,21.90
2017-05-29T05:25:33.989Z,22.00
2017-05-29T05:28:03.234Z,22.10
2017-05-29T05:30:30.853Z,22.10
2017-05-29T05:32:58.432Z,22.30
2017-05-29T05:35:26.851Z,22.40
2017-05-29T05:37:55.199Z,22.60
2017-05-29T05:40:23.578Z,22.60
2017-05-29T05:42:51.952Z,22.70
2017-05-29T05:45:22.744Z,22.70
2017-05-29T05:47:51.115Z,22.90
2017-05-29T05:50:18.759Z,22.90
2017-05-29T05:52:46.365Z,23.00
2017-05-29T05:55:13.964Z,23.10
2017-05-29T05:57:42.340Z,23.30
2017-05-29T06:00:10.712Z,23.40
2017-05-29T06:02:38.327Z,23.40
2017-05-29T06:05:06.734Z,23.70
2017-05-29T06:07:35.077Z,23.70
2017-05-29T06:10:03.512Z,23.80
2017-05-29T06:12:31.954Z,23.90
2017-05-29T06:15:00.316Z,24.00
2017-05-29T06:17:28.801Z,24.00
2017-05-29T06:19:57.233Z,24.10
2017-05-29T06:22:25.719Z,24.20
2017-05-29T06:24:54.128Z,24.30
2017-05-29T06:27:22.524Z,24.40
2017-05-29T06:29:51.062Z,24.60
2017-05-29T06:32:31.656Z,24.70
2017-05-29T06:35:00.179Z,24.90
2017-05-29T06:37:28.797Z,25.00
2017-05-29T06:39:57.201Z,25.10
2017-05-29T06:42:25.605Z,25.20
2017-05-29T06:44:53.948Z,25.20
2017-05-29T06:47:24.210Z,25.30
2017-05-29T06:49:52.560Z,25.30
2017-05-29T06:52:20.938Z,25.40
2017-05-29T06:54:49.274Z,25.50
2017-05-29T06:57:17.695Z,25.50
2017-05-29T06:59:45.270Z,25.50
2017-05-29T07:02:13.684Z,25.60
2017-05-29T07:04:41.247Z,25.60
2017-05-29T07:07:09.655Z,25.80
2017-05-29T07:09:37.993Z,26.00
2017-05-29T07:12:06.332Z,26.00
2017-05-29T07:14:34.704Z,26.10
2017-05-29T07:17:03.069Z,26.20
2017-05-29T07:19:31.413Z,26.20
2017-05-29T07:21:59.808Z,26.30
2017-05-29T07:24:28.219Z,26.30
2017-05-29T07:26:56.618Z,26.40
2017-05-29T07:29:25.008Z,26.40
2017-05-29T07:31:52.618Z,26.40
2017-05-29T07:34:20.173Z,26.50
2017-05-29T07:36:48.615Z,26.70
2017-05-29T07:39:17.014Z,26.80
2017-05-29T07:41:45.353Z,26.90
2017-05-29T07:44:12.918Z,26.90
2017-05-29T07:46:41.685Z,27.10
2017-05-29T07:49:10.038Z,27.30
2017-05-29T07:51:38.355Z,27.40
2017-05-29T07:54:05.954Z,27.30
2017-05-29T07:56:34.300Z,27.50
2017-05-29T07:59:02.675Z,27.60
2017-05-29T08:01:31.053Z,27.70
2017-05-29T08:03:59.474Z,27.80
2017-05-29T08:06:27.807Z,27.90
2017-05-29T08:08:56.254Z,28.00
2017-05-29T08:11:25.518Z,28.20
2017-05-29T08:13:55.073Z,28.10
2017-05-29T08:16:23.472Z,28.40
2017-05-29T08:18:51.087Z,28.40
2017-05-29T08:21:20.403Z,28.80
2017-05-29T08:23:48.800Z,29.00
2017-05-29T08:26:17.124Z,29.10
2017-05-29T08:28:44.738Z,29.10
2017-05-29T08:31:13.068Z,29.40
2017-05-29T08:33:41.463Z,29.50
2017-05-29T08:36:09.890Z,29.70
2017-05-29T08:38:38.241Z,29.70
2017-05-29T08:41:06.604Z,29.70
2017-05-29T08:43:34.942Z,29.70
2017-05-29T08:46:03.296Z,29.70
2017-05-29T08:48:31.639Z,29.70
2017-05-29T08:50:59.280Z,29.70
2017-05-29T08:53:27.044Z,29.80
2017-05-29T08:55:55.542Z,29.90
2017-05-29T08:58:23.988Z,29.90
2017-05-29T09:00:52.372Z,30.00
2017-05-29T09:03:20.007Z,30.00
2017-05-29T09:05:48.334Z,30.30
2017-05-29T09:08:16.818Z,30.40
2017-05-29T09:10:45.161Z,30.60
2017-05-29T09:13:13.914Z,30.70
2017-05-29T09:15:42.277Z,30.70
2017-05-29T09:18:10.635Z,30.80
2017-05-29T09:20:39.006Z,30.80
2017-05-29T09:23:07.335Z,30.90
2017-05-29T09:25:35.736Z,31.10
2017-05-29T09:28:04.095Z,31.40
2017-05-29T09:30:32.479Z,31.60
2017-05-29T09:33:00.930Z,31.80
2017-05-29T09:35:29.326Z,32.00
2017-05-29T09:37:57.679Z,32.00
2017-05-29T09:40:26.136Z,32.20
2017-05-29T09:42:54.451Z,32.30
2017-05-29T09:45:22.091Z,32.30
2017-05-29T09:47:50.459Z,32.50
2017-05-29T09:50:18.826Z,32.50
2017-05-29T09:52:47.168Z,32.50
2017-05-29T09:55:15.515Z,32.50
2017-05-29T09:57:43.882Z,32.60
2017-05-29T10:00:12.245Z,32.60
2017-05-29T10:02:40.591Z,32.70
2017-05-29T10:05:09.004Z,32.70
2017-05-29T10:07:40.864Z,32.60
2017-05-29T10:10:09.221Z,32.70
2017-05-29T10:12:36.794Z,32.70
2017-05-29T10:15:05.144Z,32.70
2017-05-29T10:17:33.474Z,32.70
2017-05-29T10:20:01.209Z,32.70
2017-05-29T10:22:29.566Z,32.90
2017-05-29T10:24:57.918Z,33.10
2017-05-29T10:27:26.353Z,33.20
2017-05-29T10:29:54.716Z,33.10
2017-05-29T10:32:23.618Z,33.10
2017-05-29T10:34:51.607Z,33.10
2017-05-29T10:37:20.260Z,33.00
2017-05-29T10:39:49.240Z,32.90
2017-05-29T10:42:17.809Z,33.00
2017-05-29T10:44:46.192Z,33.00
2017-05-29T10:47:14.580Z,33.00
2017-05-29T10:49:42.231Z,32.90
2017-05-29T10:52:09.850Z,33.00
2017-05-29T10:54:37.478Z,33.10
2017-05-29T10:57:05.834Z,33.40
2017-05-29T10:59:34.198Z,33.40
2017-05-29T11:02:02.593Z,33.40
2017-05-29T11:04:30.908Z,33.40
2017-05-29T11:06:59.284Z,33.50
2017-05-29T11:09:27.641Z,33.60
2017-05-29T11:11:55.987Z,33.60
2017-05-29T11:14:24.377Z,33.80
2017-05-29T11:16:52.799Z,33.90
2017-05-29T11:19:21.174Z,34.10
2017-05-29T11:21:49.577Z,34.50
2017-05-29T11:24:17.939Z,34.80
2017-05-29T11:26:46.312Z,35.00
2017-05-29T11:29:14.650Z,35.30
2017-05-29T11:31:43.018Z,35.50
2017-05-29T11:34:10.576Z,35.50
2017-05-29T11:36:38.934Z,35.90
2017-05-29T11:39:07.277Z,35.90
2017-05-29T11:41:35.620Z,36.00
2017-05-29T11:44:03.176Z,36.00
2017-05-29T11:46:31.510Z,36.60
2017-05-29T11:48:59.827Z,36.90
2017-05-29T11:51:28.164Z,37.50
2017-05-29T11:53:56.490Z,37.90
2017-05-29T11:56:24.838Z,37.80
2017-05-29T11:58:52.382Z,37.80
2017-05-29T12:01:20.247Z,37.70
2017-05-29T12:03:48.565Z,37.30
2017-05-29T12:06:16.883Z,37.30
2017-05-29T12:08:44.487Z,37.20
2017-05-29T12:11:12.793Z,37.60
2017-05-29T12:13:41.349Z,38.00
2017-05-29T12:16:09.843Z,38.60
2017-05-29T12:18:38.310Z,39.20
2017-05-29T12:21:06.829Z,39.90
2017-05-29T12:23:35.383Z,40.70
2017-05-29T12:26:03.696Z,41.40
2017-05-29T12:28:32.071Z,42.20
2017-05-29T12:31:00.411Z,42.80
2017-05-29T12:33:28.732Z,43.40
2017-05-29T12:35:57.050Z,44.00
2017-05-29T12:38:25.389Z,44.10
2017-05-29T12:40:53.746Z,44.20
2017-05-29T12:43:21.324Z,44.20
2017-05-29T12:45:49.931Z,44.40
2017-05-29T12:48:18.994Z,44.70
2017-05-29T12:50:47.549Z,44.80
2017-05-29T12:53:15.134Z,44.70
2017-05-29T12:55:43.452Z,45.70
2017-05-29T12:58:11.059Z,45.70
2017-05-29T13:00:38.604Z,46.20
2017-05-29T13:03:06.948Z,46.60
2017-05-29T13:05:35.261Z,46.40
2017-05-29T13:08:03.619Z,46.10
2017-05-29T13:10:31.954Z,45.70
2017-05-29T13:13:00.280Z,45.20
2017-05-29T13:15:28.600Z,44.90
2017-05-29T13:17:56.950Z,44.90
2017-05-29T13:20:25.286Z,45.20
2017-05-29T13:22:53.634Z,45.40
2017-05-29T13:25:21.939Z,45.60
2017-05-29T13:27:50.498Z,45.90
2017-05-29T13:30:18.824Z,46.00
2017-05-29T13:32:47.158Z,45.80
2017-05-29T13:35:14.748Z,45.80
2017-05-29T13:37:43.125Z,46.00
2017-05-29T13:40:11.483Z,46.10
2017-05-29T13:42:39.798Z,46.20
2017-05-29T13:45:08.180Z,46.10
2017-05-29T13:47:36.512Z,46.00
2017-05-29T13:50:04.872Z,46.10
2017-05-29T13:52:33.182Z,46.20
2017-05-29T13:55:00.824Z,46.20
2017-05-29T13:57:29.142Z,46.60
2017-05-29T13:59:56.720Z,46.60
2017-05-29T14:02:25.843Z,47.20
2017-05-29T14:04:54.286Z,47.30
2017-05-29T14:07:22.664Z,47.30
2017-05-29T14:09:51.084Z,47.30
2017-05-29T14:12:19.439Z,47.30
2017-05-29T14:14:47.804Z,47.40
2017-05-29T14:17:16.231Z,47.40
2017-05-29T14:19:44.607Z,47.10
2017-05-29T14:22:13.080Z,47.00
2017-05-29T14:24:41.530Z,47.10
2017-05-29T14:27:09.894Z,47.00
2017-05-29T14:29:38.286Z,46.80
2017-05-29T14:32:06.624Z,46.80
2017-05-29T14:34:35.026Z,46.80
2017-05-29T14:37:03.363Z,46.90
2017-05-29T14:39:31.703Z,46.90
2017-05-29T14:42:00.056Z,47.00
2017-05-29T14:44:28.403Z,47.10
2017-05-29T14:46:56.729Z,47.00
2017-05-29T14:49:25.233Z,47.10
2017-05-29T14:51:53.612Z,47.10
2017-05-29T14:54:23.290Z,47.20
2017-05-29T14:56:51.732Z,47.10
2017-05-29T14:59:20.058Z,46.90
2017-05-29T15:01:48.452Z,46.80
2017-05-29T15:04:16.931Z,46.90
2017-05-29T15:06:45.330Z,47.10
2017-05-29T15:09:17.339Z,47.20
2017-05-29T15:11:47.620Z,47.40
2017-05-29T15:14:16.575Z,47.50
2017-05-29T15:16:48.776Z,47.40
2017-05-29T15:19:21.775Z,47.50
2017-05-29T15:39:21.500Z,46.70
2017-05-29T15:45:02.405Z,45.90
2017-05-29T15:47:46.164Z,45.60
2017-05-29T15:50:28.171Z,45.30
2017-05-29T15:53:07.353Z,45.10
2017-05-29T15:55:36.746Z,45.00
2017-05-29T15:58:13.233Z,45.00
2017-05-29T16:00:44.738Z,45.00
2017-05-29T16:03:18.073Z,44.90
2017-05-29T16:57:02.892Z,41.50
2017-05-29T17:26:09.012Z,40.30
2017-05-29T17:28:37.890Z,40.20
2017-05-29T17:31:06.386Z,39.90
2017-05-29T17:33:34.088Z,39.90
2017-05-29T17:38:39.973Z,39.60
2017-05-29T17:41:08.487Z,39.40
2017-05-29T17:43:42.726Z,39.30
2017-05-29T17:46:11.095Z,39.10
2017-05-29T17:48:38.709Z,39.00
2017-05-29T17:51:07.082Z,38.60
2017-05-29T17:53:35.530Z,38.30
2017-05-29T17:56:04.001Z,38.00
2017-05-29T17:58:32.708Z,37.60
2017-05-29T18:01:00.360Z,37.60
2017-05-29T18:03:27.958Z,37.30
2017-05-29T18:05:58.227Z,36.70
2017-05-29T18:08:26.553Z,36.60
2017-05-29T18:10:55.944Z,36.20
2017-05-29T18:13:24.623Z,36.00
2017-05-29T18:15:52.958Z,35.90
2017-05-29T18:18:21.326Z,35.70
2017-05-29T18:20:50.031Z,35.50
2017-05-29T18:23:18.378Z,35.20
2017-05-29T18:25:47.391Z,35.00
2017-05-29T18:28:16.051Z,34.80
2017-05-29T18:33:49.046Z,34.40
2017-05-29T18:36:23.181Z,34.30
2017-05-29T18:41:46.166Z,33.90
2017-05-29T18:44:24.566Z,33.70
2017-05-29T18:46:53.042Z,33.50
2017-05-29T18:49:43.974Z,33.40
2017-05-29T18:55:21.287Z,33.10
2017-05-29T18:57:49.865Z,32.70
2017-05-29T19:00:18.291Z,32.50
2017-05-29T19:02:58.380Z,32.20
2017-05-29T19:05:39.907Z,32.00
2017-05-29T19:10:48.068Z,31.50
2017-05-29T19:13:16.507Z,31.30
2017-05-29T19:15:44.903Z,31.10
2017-05-29T19:18:13.315Z,30.90
2017-05-29T19:20:41.709Z,30.80
2017-05-29T19:23:22.596Z,30.60
2017-05-29T19:28:50.118Z,30.40
2017-05-29T19:31:18.562Z,30.20
2017-05-29T19:33:46.164Z,30.20
2017-05-29T19:36:14.595Z,30.00
2017-05-29T19:38:42.967Z,29.90
2017-05-29T19:41:11.406Z,29.80
2017-05-29T19:46:35.746Z,29.60
2017-05-29T19:49:04.191Z,29.40
2017-05-29T19:51:31.843Z,29.40
2017-05-29T19:53:59.449Z,29.30
2017-05-29T19:56:27.903Z,29.10
2017-05-29T19:58:56.373Z,29.00
2017-05-29T20:01:24.018Z,29.00
2017-05-29T20:03:52.457Z,28.80
2017-05-29T20:06:20.892Z,28.70
2017-05-29T20:08:50.419Z,28.70
2017-05-29T20:11:18.031Z,28.50
2017-05-29T20:13:46.387Z,28.30
2017-05-29T20:16:14.861Z,28.30
2017-05-29T20:18:43.213Z,28.20
2017-05-29T20:21:12.554Z,28.10
2017-05-29T20:23:40.971Z,28.10
2017-05-29T20:26:09.486Z,28.00
2017-05-29T20:28:37.842Z,27.90
2017-05-29T20:31:06.265Z,27.80
2017-05-29T20:33:34.679Z,27.70
2017-05-29T20:36:03.077Z,27.60
2017-05-29T20:38:31.489Z,27.60
2017-05-29T20:40:59.136Z,27.60
2017-05-29T20:43:27.494Z,27.50
2017-05-29T20:45:55.885Z,27.40
2017-05-29T20:48:24.298Z,27.40
2017-05-29T20:50:52.377Z,27.30
2017-05-29T20:53:20.956Z,27.30
2017-05-29T20:55:49.300Z,27.20
2017-05-29T20:58:17.694Z,27.20
2017-05-29T21:00:46.068Z,27.30
2017-05-29T21:03:14.454Z,27.20
2017-05-29T21:05:42.887Z,27.20
2017-05-29T21:08:11.308Z,27.20
2017-05-29T21:10:38.885Z,27.20
2017-05-29T21:13:07.263Z,27.20
2017-05-29T21:15:35.612Z,27.10
2017-05-29T21:18:03.995Z,27.10
2017-05-29T21:20:32.413Z,27.10
2017-05-29T21:26:10.303Z,27.00
2017-05-29T21:28:38.688Z,27.00
2017-05-29T21:31:06.322Z,26.90
2017-05-29T21:33:34.747Z,26.90
2017-05-29T21:36:03.108Z,26.90
2017-05-29T21:38:31.461Z,26.90
2017-05-29T21:40:59.832Z,26.80
2017-05-29T21:43:28.271Z,26.80
2017-05-29T21:45:56.684Z,26.80
2017-05-29T21:48:25.085Z,26.70
2017-05-29T21:50:53.455Z,26.70
2017-05-29T21:53:21.052Z,26.70
2017-05-29T21:55:49.382Z,26.60
2017-05-29T21:58:17.736Z,26.50
2017-05-29T22:00:46.088Z,26.40
2017-05-29T22:03:14.458Z,26.40
2017-05-29T22:05:42.773Z,26.40
2017-05-29T22:08:11.129Z,26.30
2017-05-29T22:10:39.454Z,26.20
2017-05-29T22:13:07.810Z,26.10
2017-05-29T22:15:36.135Z,26.10
2017-05-29T22:18:04.474Z,26.10
2017-05-29T22:20:32.789Z,26.00
2017-05-29T22:23:01.143Z,25.90
2017-05-29T22:25:29.572Z,25.90
2017-05-29T22:27:58.015Z,25.90
2017-05-29T22:30:26.407Z,25.80
2017-05-29T22:32:54.745Z,25.80
2017-05-29T22:35:23.052Z,25.70
2017-05-29T22:37:51.841Z,25.70
2017-05-29T22:40:20.184Z,25.70
2017-05-29T22:42:48.604Z,25.60
2017-05-29T22:45:16.965Z,25.50
2017-05-29T22:47:45.277Z,25.50
2017-05-29T22:50:17.235Z,25.40
2017-05-29T22:52:46.922Z,25.40
2017-05-29T22:58:05.995Z,25.30
2017-05-29T23:03:33.343Z,25.20
2017-05-29T23:06:16.414Z,25.20
2017-05-29T23:08:55.945Z,24.90
2017-05-29T23:11:48.597Z,25.00
2017-05-29T23:17:28.087Z,25.00
2017-05-29T23:19:55.826Z,24.90
2017-05-29T23:22:23.392Z,24.90
2017-05-29T23:24:50.988Z,24.80
2017-05-29T23:27:19.319Z,24.70
2017-05-29T23:29:46.909Z,24.70
2017-05-29T23:32:15.256Z,24.70
2017-05-29T23:34:43.650Z,24.60
2017-05-29T23:37:12.007Z,24.60
2017-05-29T23:39:40.359Z,24.60
2017-05-29T23:42:08.691Z,24.60
2017-05-29T23:44:37.057Z,24.50
2017-05-29T23:47:05.409Z,24.50
2017-05-29T23:49:33.773Z,24.40
2017-05-29T23:52:01.348Z,24.40
2017-05-29T23:54:28.983Z,24.40
2017-05-29T23:56:57.311Z,24.30
2017-05-29T23:59:25.765Z,24.20
